Time;durP1;ratioP1;P1;durP2;ratioP2;P2;SDS_P1;SDS_P2;PMS_P1;PMS_P2;Temp;Humidity;BMP_temperature;BMP_pressure;BME280_temperature;BME280_humidity;BME280_pressure;Samples;Min_cycle;Max_cycle;Signal;HPM_P1;HPM_P2
2022/04/18 00:02:09;;;;;;;;;2.00;2.00;;;;;16.61;28.99;101166.00;4975764;28;45453;-56
2022/04/18 00:04:34;;;;;;;;;2.00;2.00;;;;;16.55;28.71;101163.78;4980085;28;45495;-56
2022/04/18 00:07:01;;;;;;;;;3.67;2.67;;;;;16.52;28.98;101157.63;5079376;27;45434;-55
2022/04/18 00:09:30;;;;;;;;;2.00;2.00;;;;;16.49;28.72;101151.63;5077802;28;45366;-55
2022/04/18 00:11:56;;;;;;;;;2.00;2.00;;;;;16.43;28.77;101147.56;5079287;27;45580;-55
2022/04/18 00:14:23;;;;;;;;;2.00;2.00;;;;;16.42;29.54;101137.81;4990288;27;45503;-56
2022/04/18 00:16:49;;;;;;;;;2.33;2.33;;;;;16.34;29.64;101126.75;4973878;28;45209;-56
2022/04/18 00:19:14;;;;;;;;;2.00;2.00;;;;;16.35;29.48;101133.81;4975122;28;45448;-56
2022/04/18 00:21:40;;;;;;;;;3.00;1.00;;;;;16.43;30.02;101144.88;4975779;28;45619;-56
2022/04/18 00:24:05;;;;;;;;;2.00;2.00;;;;;16.40;29.43;101147.75;4975155;28;45436;-57
2022/04/18 00:26:31;;;;;;;;;1.33;1.33;;;;;16.36;29.49;101138.22;4975709;28;45298;-56
2022/04/18 00:28:56;;;;;;;;;2.00;2.00;;;;;16.31;29.59;101121.59;4974949;27;45683;-55
2022/04/18 00:31:22;;;;;;;;;1.67;1.67;;;;;16.35;29.18;101127.59;4975505;27;45352;-55
2022/04/18 00:33:48;;;;;;;;;1.00;1.00;;;;;16.30;30.12;101119.88;4975337;28;45332;-57
2022/04/18 00:36:13;;;;;;;;;1.00;1.00;;;;;16.28;29.00;101132.56;4975025;28;45359;-55
2022/04/18 00:38:39;;;;;;;;;1.67;1.67;;;;;16.20;29.97;101119.69;4975477;28;45324;-54
2022/04/18 00:41:05;;;;;;;;;1.33;1.33;;;;;16.26;28.92;101128.25;4974390;28;45489;-56
2022/04/18 00:43:45;;;;;;;;;1.67;1.67;;;;;16.22;28.84;101122.25;4975763;28;46222;-56
2022/04/18 00:46:12;;;;;;;;;1.00;1.00;;;;;16.21;28.49;101121.38;4974446;28;45497;-57
2022/04/18 00:48:37;;;;;;;;;1.33;1.33;;;;;16.23;29.49;101119.44;4975723;28;45554;-56
2022/04/18 00:51:15;;;;;;;;;1.67;1.67;;;;;16.26;28.62;101117.50;4975489;28;45343;-55
2022/04/18 00:53:42;;;;;;;;;2.00;2.00;;;;;16.14;28.39;101093.25;4975591;28;45399;-55
2022/04/18 00:56:09;;;;;;;;;1.00;1.00;;;;;16.12;28.62;101107.75;4975357;28;45289;-57
2022/04/18 00:58:35;;;;;;;;;2.00;2.00;;;;;16.13;28.43;101115.69;4975054;28;45471;-56
2022/04/18 01:01:01;;;;;;;;;1.33;1.33;;;;;16.09;29.02;101116.03;4974233;28;45572;-55
2022/04/18 01:03:30;;;;;;;;;1.00;1.00;;;;;16.09;29.34;101110.66;4970217;28;46093;-56
2022/04/18 01:05:59;;;;;;;;;1.00;1.00;;;;;16.10;28.69;101121.28;5029579;27;45420;-56
2022/04/18 01:08:25;;;;;;;;;0.00;0.00;;;;;16.00;29.35;101097.91;5077920;27;45425;-54
2022/04/18 01:10:54;;;;;;;;;2.00;2.00;;;;;16.02;29.30;101109.41;5078346;27;45444;-58
2022/04/18 01:13:20;;;;;;;;;2.00;2.00;;;;;16.00;29.04;101103.25;5077957;27;45448;-54
2022/04/18 01:15:46;;;;;;;;;3.00;1.67;;;;;15.96;29.23;101094.59;5076577;28;45859;-56
2022/04/18 01:18:11;;;;;;;;;1.00;1.00;;;;;15.95;29.47;101092.88;5054661;27;45434;-56
2022/04/18 01:20:37;;;;;;;;;4.00;2.00;;;;;16.02;29.12;101109.41;4975493;28;45683;-59
2022/04/18 01:23:05;;;;;;;;;2.00;2.00;;;;;15.99;29.41;101104.22;4974483;28;47184;-55
2022/04/18 01:30:59;;;;;;;;;1.00;1.00;;;;;15.79;29.81;101090.41;4975124;28;45999;-55
2022/04/18 01:33:26;;;;;;;;;3.00;1.67;;;;;15.83;29.37;101099.94;4974286;28;45417;-55
2022/04/18 01:35:51;;;;;;;;;5.00;2.33;;;;;15.80;30.01;101093.94;4973629;28;45338;-56
2022/04/18 01:38:17;;;;;;;;;2.00;2.00;;;;;15.67;29.77;101085.91;4974411;28;45466;-56
2022/04/18 01:40:42;;;;;;;;;1.67;1.67;;;;;15.63;30.46;101093.31;4974798;28;45474;-56
2022/04/18 01:43:07;;;;;;;;;1.33;1.33;;;;;15.60;29.72;101084.59;4974399;28;46043;-56
2022/04/18 01:45:34;;;;;;;;;1.33;1.33;;;;;15.63;30.53;101090.63;4974490;28;45489;-56
2022/04/18 01:48:00;;;;;;;;;1.67;1.67;;;;;15.61;29.99;101088.97;4973402;28;45668;-56
2022/04/18 01:50:26;;;;;;;;;1.33;1.00;;;;;15.57;30.23;101090.13;4973347;28;45585;-55
2022/04/18 01:52:51;;;;;;;;;3.00;2.00;;;;;15.47;29.93;101076.50;4968464;28;46119;-56
2022/04/18 01:55:17;;;;;;;;;2.33;2.33;;;;;15.47;30.60;101089.06;4974367;28;45380;-60
2022/04/18 01:57:43;;;;;;;;;2.00;2.00;;;;;15.41;30.11;101076.94;4974588;28;45778;-55
2022/04/18 02:00:09;;;;;;;;;3.67;3.00;;;;;15.41;29.99;101076.94;4974253;28;45165;-57
2022/04/18 02:02:34;;;;;;;;;2.00;2.00;;;;;15.33;31.06;101061.38;4974415;28;45267;-56
2022/04/18 02:05:02;;;;;;;;;2.00;2.00;;;;;15.40;30.22;101079.72;4996480;27;45440;-56
2022/04/18 02:07:30;;;;;;;;;2.00;2.00;;;;;15.27;30.68;101061.81;5068570;27;45398;-55
2022/04/18 02:09:56;;;;;;;;;2.00;2.00;;;;;15.33;30.39;101085.50;4973321;28;45295;-55
2022/04/18 02:12:21;;;;;;;;;1.00;1.00;;;;;15.30;30.56;101084.84;4973576;28;46007;-55
2022/04/18 02:14:47;;;;;;;;;2.00;2.00;;;;;15.27;30.41;101075.19;4973914;28;45769;-55
2022/04/18 02:17:13;;;;;;;;;3.00;3.00;;;;;15.21;30.63;101075.59;4972675;28;45309;-55
2022/04/18 02:19:39;;;;;;;;;1.33;1.33;;;;;15.16;30.85;101071.53;4974155;28;44874;-56
2022/04/18 02:22:05;;;;;;;;;2.67;2.00;;;;;15.21;30.77;101075.59;4974055;27;46384;-56
2022/04/18 02:24:31;;;;;;;;;4.00;2.00;;;;;15.20;31.52;101075.72;4972826;28;45467;-55
2022/04/18 02:26:58;;;;;;;;;3.33;3.00;;;;;15.18;31.33;101069.59;4972376;27;45477;-55
2022/04/18 02:29:23;;;;;;;;;1.67;1.67;;;;;15.14;30.98;101068.09;4954219;28;45413;-56
2022/04/18 02:34:33;;;;;;;;;4.33;3.00;;;;;15.09;31.13;101071.06;4954570;28;45440;-56
2022/04/18 02:36:59;;;;;;;;;4.00;2.67;;;;;15.00;31.29;101061.00;4954091;28;45445;-55
2022/04/18 02:39:24;;;;;;;;;2.00;1.00;;;;;14.89;30.79;101040.28;4954225;28;45571;-56
2022/04/18 02:41:50;;;;;;;;;3.33;1.67;;;;;15.02;31.53;101059.06;4958605;28;45289;-55
2022/04/18 02:44:15;;;;;;;;;2.00;2.00;;;;;14.96;31.82;101052.28;4973573;28;45442;-56
2022/04/18 02:46:41;;;;;;;;;2.00;2.00;;;;;15.00;31.93;101050.28;4974004;27;45526;-55
2022/04/18 02:49:06;;;;;;;;;3.00;3.00;;;;;15.02;32.59;101053.72;4974474;28;45610;-56
2022/04/18 02:51:32;;;;;;;;;3.67;2.00;;;;;15.00;32.77;101055.63;4973640;28;46210;-56
2022/04/18 02:53:59;;;;;;;;;2.67;2.67;;;;;14.98;31.79;101052.22;4973566;28;45303;-57
2022/04/18 02:56:24;;;;;;;;;2.00;2.00;;;;;14.86;32.25;101043.16;4973675;28;45208;-55
2022/04/18 02:58:50;;;;;;;;;3.00;3.00;;;;;14.94;32.56;101064.06;4971457;28;45452;-55
2022/04/18 03:01:15;;;;;;;;;1.33;1.00;;;;;14.84;32.82;101042.38;4973382;27;45412;-56
2022/04/18 03:03:40;;;;;;;;;3.00;2.33;;;;;14.83;31.61;101050.53;4973394;27;45362;-54
2022/04/18 03:06:06;;;;;;;;;2.33;2.33;;;;;14.84;32.82;101061.13;5042951;28;45409;-55
2022/04/18 03:08:32;;;;;;;;;3.67;3.00;;;;;14.70;32.61;101032.59;5076168;27;45538;-55
2022/04/18 03:11:08;;;;;;;;;2.00;2.00;;;;;14.80;33.78;101053.41;5006651;28;45939;-55
2022/04/18 03:13:36;;;;;;;;;5.33;3.00;;;;;14.72;34.26;101041.41;4971340;28;45424;-56
2022/04/18 03:16:03;;;;;;;;;3.00;3.00;;;;;14.69;34.05;101057.66;4973130;27;45284;-55
2022/04/18 03:18:28;;;;;;;;;6.33;4.67;;;;;14.57;34.78;101053.09;4973346;27;45503;-56
2022/04/18 03:20:55;;;;;;;;;3.00;3.00;;;;;14.49;34.46;101050.09;4972630;28;47083;-55
2022/04/18 03:23:20;;;;;;;;;4.33;4.33;;;;;14.49;35.14;101059.94;4976114;28;45492;-56
2022/04/18 03:25:46;;;;;;;;;4.33;4.33;;;;;14.36;35.33;101066.03;4976141;28;45437;-58
2022/04/18 03:28:11;;;;;;;;;4.33;4.33;;;;;14.40;35.97;101058.66;4976339;28;45465;-56
2022/04/18 03:30:37;;;;;;;;;5.00;5.00;;;;;14.40;35.91;101061.34;4975398;27;45342;-55
2022/04/18 03:33:03;;;;;;;;;4.00;3.67;;;;;14.39;35.26;101062.31;4975951;28;45479;-54
2022/04/18 03:35:30;;;;;;;;;4.00;4.00;;;;;14.23;35.57;101054.41;4975856;28;45449;-56
2022/04/18 03:40:42;;;;;;;;;4.67;4.67;;;;;14.16;35.47;101053.06;4975774;28;45287;-55
2022/04/18 03:43:08;;;;;;;;;3.33;3.33;;;;;14.07;36.19;101051.84;4974881;28;45349;-55
2022/04/18 03:45:33;;;;;;;;;3.00;3.00;;;;;14.10;36.05;101057.00;4975310;28;45444;-56
2022/04/18 03:47:59;;;;;;;;;3.33;3.33;;;;;14.08;36.41;101050.03;4975903;28;45750;-55
2022/04/18 03:50:25;;;;;;;;;8.00;4.00;;;;;13.96;35.58;101040.13;4975723;28;45347;-56
2022/04/18 03:52:51;;;;;;;;;3.67;3.67;;;;;13.82;36.70;101019.59;4975904;28;45460;-55
2022/04/18 03:55:17;;;;;;;;;4.00;4.00;;;;;13.87;36.34;101052.22;4973943;28;45496;-54
2022/04/18 03:57:42;;;;;;;;;7.67;3.67;;;;;13.85;36.38;101055.00;4975946;28;45314;-55
2022/04/18 04:00:09;;;;;;;;;3.33;3.33;;;;;13.76;36.18;101049.38;4976071;28;45955;-56
2022/04/18 04:02:35;;;;;;;;;4.00;4.00;;;;;13.57;36.59;101037.16;4975735;28;45437;-56
2022/04/18 04:05:01;;;;;;;;;0.00;0.00;;;;;13.55;37.17;101038.19;4997057;28;45427;-55
2022/04/18 04:07:27;;;;;;;;;7.00;3.50;;;;;13.61;36.63;101051.19;5079016;27;45461;-57
2022/04/18 04:09:53;;;;;;;;;2.00;2.00;;;;;13.55;36.35;101031.03;5078382;27;45373;-55
2022/04/18 04:12:26;;;;;;;;;5.00;4.00;;;;;13.57;36.81;101036.28;5078400;27;45375;-56
2022/04/18 04:14:55;;;;;;;;;3.00;3.00;;;;;13.48;37.71;101036.84;5078540;27;45509;-56
2022/04/18 04:17:22;;;;;;;;;2.00;2.00;;;;;13.52;37.93;101041.03;5078642;27;45453;-55
2022/04/18 04:19:48;;;;;;;;;3.50;3.50;;;;;13.57;37.55;101034.47;5078329;27;46500;-55
2022/04/18 04:22:14;;;;;;;;;3.00;3.00;;;;;13.61;36.81;101035.13;4978608;28;45351;-56
2022/04/18 04:24:39;;;;;;;;;5.00;3.00;;;;;13.53;37.29;101043.59;4975867;28;45394;-55
2022/04/18 04:27:05;;;;;;;;;5.67;3.00;;;;;13.53;37.14;101042.75;4974411;28;45449;-56
2022/04/18 04:29:31;;;;;;;;;4.33;3.00;;;;;13.44;36.83;101038.84;4975090;28;45337;-56
2022/04/18 04:31:57;;;;;;;;;7.00;3.33;;;;;13.38;37.17;101033.00;4973134;27;45283;-55
2022/04/18 04:34:23;;;;;;;;;4.75;4.00;;;;;13.28;37.75;101022.91;4975280;28;45230;-56
2022/04/18 04:36:48;;;;;;;;;3.33;3.33;;;;;13.40;37.44;101042.63;4974646;28;45238;-55
2022/04/18 04:39:14;;;;;;;;;3.00;3.00;;;;;13.36;37.24;101033.09;4976555;28;45334;-55
2022/04/18 04:41:39;;;;;;;;;5.25;5.25;;;;;13.38;37.14;101055.22;4973118;28;45260;-53
2022/04/18 04:44:06;;;;;;;;;4.33;3.33;;;;;13.35;38.44;101052.75;4974026;28;45301;-55
2022/04/18 04:46:32;;;;;;;;;3.75;3.75;;;;;13.25;37.67;101040.91;4974091;28;45392;-56
2022/04/18 04:48:58;;;;;;;;;5.25;4.00;;;;;13.27;37.78;101047.00;4975047;28;45350;-56
2022/04/18 04:51:23;;;;;;;;;3.00;3.00;;;;;13.30;37.81;101045.97;4975163;28;45313;-56
2022/04/18 04:53:49;;;;;;;;;7.75;4.25;;;;;13.28;37.79;101054.06;4975098;27;45355;-56
2022/04/18 04:56:14;;;;;;;;;4.00;4.00;;;;;13.31;38.55;101047.69;4975627;28;45366;-55
2022/04/18 04:58:40;;;;;;;;;4.67;3.67;;;;;13.31;38.52;101037.03;4973470;28;47344;-57
2022/04/18 05:01:07;;;;;;;;;4.67;4.33;;;;;13.35;38.01;101042.06;4973331;28;45500;-56
2022/04/18 05:03:32;;;;;;;;;3.00;3.00;;;;;13.35;37.41;101046.56;4988299;28;45576;-54
2022/04/18 05:05:58;;;;;;;;;4.00;4.00;;;;;13.32;38.04;101042.25;5039024;27;45356;-56
2022/04/18 05:08:23;;;;;;;;;6.00;5.33;;;;;13.29;37.72;101050.47;5077921;27;45299;-56
2022/04/18 05:10:49;;;;;;;;;5.33;5.33;;;;;13.25;38.40;101054.25;5077772;27;45327;-55
2022/04/18 05:13:14;;;;;;;;;4.33;4.33;;;;;13.28;38.87;101054.94;5078162;27;45408;-56
2022/04/18 05:15:40;;;;;;;;;6.75;4.00;;;;;13.28;38.20;101049.59;5076667;27;45651;-56
2022/04/18 05:18:05;;;;;;;;;3.00;3.00;;;;;13.22;38.41;101049.97;5077377;27;46548;-54
2022/04/18 05:20:31;;;;;;;;;3.75;3.75;;;;;13.13;38.25;101041.59;4972161;28;45535;-57
2022/04/18 05:22:57;;;;;;;;;3.25;3.25;;;;;13.13;38.32;101061.16;4955425;28;45421;-55
2022/04/18 05:25:24;;;;;;;;;4.00;4.00;;;;;13.13;39.31;101055.81;4955437;28;45358;-56
2022/04/18 05:27:50;;;;;;;;;6.00;3.75;;;;;13.14;38.62;101059.34;4953917;28;45456;-53
2022/04/18 05:30:15;;;;;;;;;4.00;4.00;;;;;13.12;38.20;101067.44;4955374;28;45505;-56
2022/04/18 05:32:43;;;;;;;;;6.00;6.00;;;;;13.00;39.37;101061.00;4955266;28;45252;-55
2022/04/18 05:35:09;;;;;;;;;8.00;6.25;;;;;13.03;39.12;101056.47;4955515;28;45525;-56
2022/04/18 05:37:34;;;;;;;;;5.50;5.50;;;;;13.02;38.25;101073.41;5055850;28;46950;-55
2022/04/18 05:40:00;;;;;;;;;7.00;7.00;;;;;12.96;38.57;101070.16;4955336;28;45422;-55
2022/04/18 05:42:25;;;;;;;;;6.00;6.00;;;;;12.90;38.65;101059.84;4955244;28;45558;-55
2022/04/18 05:44:51;;;;;;;;;6.75;6.00;;;;;12.92;38.40;101084.66;4953742;28;45543;-56
2022/04/18 05:47:16;;;;;;;;;4.25;4.25;;;;;12.89;39.32;101076.81;4955391;28;45871;-55
2022/04/18 05:49:41;;;;;;;;;8.25;7.00;;;;;12.99;38.07;101077.97;4954991;28;45432;-56
2022/04/18 05:52:07;;;;;;;;;4.25;4.25;;;;;12.99;38.82;101086.00;4954755;28;45245;-54
2022/04/18 05:54:33;;;;;;;;;3.75;3.75;;;;;13.00;38.90;101085.03;4974788;28;45378;-56
2022/04/18 05:57:01;;;;;;;;;6.75;6.75;;;;;12.92;39.36;101079.31;4974350;28;46327;-56
2022/04/18 05:59:27;;;;;;;;;8.50;6.50;;;;;12.96;38.92;101083.50;4973762;28;45382;-55
2022/04/18 06:01:52;;;;;;;;;6.00;6.00;;;;;12.99;39.63;101088.66;4974521;28;45295;-56
2022/04/18 06:04:18;;;;;;;;;5.50;5.50;;;;;12.82;39.22;101075.44;4975085;28;45604;-56
2022/04/18 06:06:44;;;;;;;;;5.50;5.25;;;;;12.79;39.36;101090.78;4974382;27;45368;-55
2022/04/18 06:09:09;;;;;;;;;7.25;7.00;;;;;12.65;39.64;101081.75;4974251;28;45350;-57
2022/04/18 06:11:35;;;;;;;;;7.50;6.00;;;;;12.73;40.01;101105.31;4956141;28;45659;-55
2022/04/18 06:14:00;;;;;;;;;5.25;5.25;;;;;12.77;39.38;101101.53;4953786;28;45642;-56
2022/04/18 06:16:26;;;;;;;;;8.50;6.50;;;;;12.78;39.06;101097.94;4952911;28;46093;-55
2022/04/18 06:18:51;;;;;;;;;6.25;3.75;;;;;12.82;40.19;101104.81;4954573;28;45484;-54
2022/04/18 06:21:17;;;;;;;;;8.00;6.75;;;;;12.89;39.39;101100.84;4955774;28;45405;-56
2022/04/18 06:23:42;;;;;;;;;6.00;6.00;;;;;12.84;39.27;101102.03;5055361;28;45409;-55
2022/04/18 06:26:07;;;;;;;;;7.00;7.00;;;;;12.74;39.31;101096.34;4954523;28;45394;-56
2022/04/18 06:28:33;;;;;;;;;6.00;6.00;;;;;12.75;39.06;101097.22;4966023;28;45326;-55
2022/04/18 06:30:58;;;;;;;;;6.50;6.50;;;;;12.84;38.76;101097.56;4973069;28;45565;-55
2022/04/18 06:33:23;;;;;;;;;7.00;5.75;;;;;12.94;38.66;101092.56;4973192;28;45474;-56
2022/04/18 06:35:49;;;;;;;;;7.75;7.75;;;;;13.02;38.81;101098.34;4974208;28;46032;-56
2022/04/18 06:38:14;;;;;;;;;6.50;5.25;;;;;13.14;39.08;101096.72;4974108;28;45482;-56
2022/04/18 06:40:40;;;;;;;;;7.25;6.00;;;;;13.21;38.73;101103.47;4972571;28;45327;-57
2022/04/18 06:43:05;;;;;;;;;6.75;6.75;;;;;13.12;38.08;101079.94;4973004;28;45612;-55
2022/04/18 06:45:31;;;;;;;;;8.00;8.00;;;;;13.22;38.15;101091.84;4974121;28;45331;-55
2022/04/18 06:47:57;;;;;;;;;9.00;9.00;;;;;13.31;38.80;101095.78;4974027;28;45285;-56
2022/04/18 06:50:22;;;;;;;;;7.00;7.00;;;;;13.31;38.25;101085.09;4974012;28;45394;-55
2022/04/18 06:52:50;;;;;;;;;8.00;5.33;;;;;13.37;38.45;101077.56;4974532;28;45755;-55
2022/04/18 06:55:16;;;;;;;;;8.67;8.67;;;;;13.45;37.32;101087.81;4974521;28;45379;-55
2022/04/18 06:57:42;;;;;;;;;9.00;7.00;;;;;13.53;37.57;101090.84;4978302;28;45413;-57
2022/04/18 07:00:08;;;;;;;;;6.33;4.00;;;;;13.41;37.67;101076.44;4976739;28;45466;-57
2022/04/18 07:02:33;;;;;;;;;10.00;10.00;;;;;13.39;38.01;101074.78;4974435;28;45395;-55
2022/04/18 07:04:59;;;;;;;;;9.00;8.00;;;;;13.38;38.27;101081.09;4996912;28;46525;-55
2022/04/18 07:07:24;;;;;;;;;5.33;4.00;;;;;13.52;38.01;101090.00;5079650;28;45357;-54
2022/04/18 07:09:50;;;;;;;;;8.25;7.25;;;;;13.55;38.38;101087.16;5080080;27;45665;-55
2022/04/18 07:12:21;;;;;;;;;8.00;8.00;;;;;13.62;37.57;101084.09;5076654;27;45392;-56
2022/04/18 07:14:46;;;;;;;;;8.33;8.00;;;;;13.64;37.26;101085.72;4986124;28;48001;-55
2022/04/18 07:17:12;;;;;;;;;8.50;7.50;;;;;13.64;37.64;101088.41;4974420;28;45440;-56
2022/04/18 07:19:37;;;;;;;;;10.33;8.67;;;;;13.71;37.91;101089.75;4976461;28;45267;-56
2022/04/18 07:22:02;;;;;;;;;12.75;11.00;;;;;13.85;37.87;101097.78;4976683;27;45491;-57
2022/04/18 07:24:28;;;;;;;;;9.75;8.00;;;;;13.90;37.50;101086.78;4975773;28;45939;-54
2022/04/18 07:26:54;;;;;;;;;9.00;9.00;;;;;13.99;37.27;101088.03;4978002;28;45403;-56
2022/04/18 07:29:19;;;;;;;;;8.25;8.25;;;;;13.97;36.80;101080.13;4978100;28;45297;-56
2022/04/18 07:31:45;;;;;;;;;10.00;9.75;;;;;14.03;36.81;101094.91;4980698;28;45425;-59
2022/04/18 07:34:10;;;;;;;;;9.25;9.25;;;;;14.07;37.29;101097.31;4979764;28;46126;-58
2022/04/18 07:36:35;;;;;;;;;9.25;8.50;;;;;14.13;36.75;101088.03;4979854;28;45464;-58
2022/04/18 07:39:01;;;;;;;;;9.00;8.50;;;;;14.09;36.85;101082.03;4978382;28;45672;-57
2022/04/18 07:41:28;;;;;;;;;7.75;7.75;;;;;14.20;36.50;101091.19;4977207;28;45505;-55
2022/04/18 07:43:55;;;;;;;;;9.25;9.00;;;;;14.26;37.09;101094.34;4976833;28;46858;-55
2022/04/18 07:46:21;;;;;;;;;9.50;9.25;;;;;14.35;37.15;101084.88;4976198;28;45530;-55
2022/04/18 07:48:51;;;;;;;;;10.25;9.00;;;;;14.51;36.25;101095.47;4975434;28;45449;-56
2022/04/18 07:51:41;;;;;;;;;10.00;8.00;;;;;14.50;36.54;101075.03;4975435;28;45439;-56
2022/04/18 07:54:08;;;;;;;;;9.67;9.67;;;;;14.55;35.83;101076.44;4974075;28;46927;-55
2022/04/18 07:56:35;;;;;;;;;9.75;9.00;;;;;14.64;36.23;101094.59;4972944;28;45373;-56
2022/04/18 07:59:01;;;;;;;;;10.00;9.00;;;;;14.72;35.45;101100.31;4975218;28;45342;-56
2022/04/18 08:01:26;;;;;;;;;2.67;2.67;;;;;14.83;35.89;101088.00;5008692;27;45318;-57
2022/04/18 08:03:52;;;;;;;;;10.33;9.00;;;;;14.78;35.49;101071.41;5067674;27;46212;-55
2022/04/18 08:06:18;;;;;;;;;10.00;10.00;;;;;14.84;35.33;101097.75;4988849;28;45665;-56
2022/04/18 08:08:45;;;;;;;;;9.67;9.00;;;;;14.70;35.95;101075.44;4985438;28;45499;-56
2022/04/18 08:11:12;;;;;;;;;9.67;9.67;;;;;14.96;36.02;101102.31;5078652;27;45192;-57
2022/04/18 08:13:39;;;;;;;;;11.00;11.00;;;;;14.95;36.08;101087.19;5078767;27;46246;-56
2022/04/18 08:16:08;;;;;;;;;12.67;10.67;;;;;15.08;35.27;101098.81;5094223;27;45381;-56
2022/04/18 08:18:39;;;;;;;;;9.67;8.33;;;;;15.01;35.08;101084.13;5027429;27;45284;-53
2022/04/18 08:21:08;;;;;;;;;12.33;11.00;;;;;15.10;35.48;101096.88;4976145;28;45759;-56
2022/04/18 08:23:33;;;;;;;;;12.67;11.00;;;;;15.18;35.24;101083.84;4974655;28;45610;-55
2022/04/18 08:25:59;;;;;;;;;11.33;11.33;;;;;15.14;35.04;101063.59;4974034;28;45386;-57
2022/04/18 08:28:26;;;;;;;;;16.33;12.33;;;;;15.39;34.81;101088.72;4974491;28;45265;-55
2022/04/18 08:30:52;;;;;;;;;9.67;9.00;;;;;15.36;34.35;101073.69;4974695;28;45549;-56
2022/04/18 08:33:17;;;;;;;;;10.67;9.67;;;;;15.43;34.58;101079.50;4975313;28;45438;-56
2022/04/18 08:35:43;;;;;;;;;11.00;9.33;;;;;15.72;35.38;101070.34;5044876;28;45360;-55
2022/04/18 08:38:08;;;;;;;;;17.00;11.33;;;;;15.89;33.57;101069.19;5078559;27;45445;-55
2022/04/18 08:40:36;;;;;;;;;13.33;12.00;;;;;16.10;33.22;101066.78;4977715;27;45836;-57
2022/04/18 08:43:03;;;;;;;;;10.67;10.67;;;;;16.41;33.10;101074.34;4975081;28;46412;-55
2022/04/18 08:45:29;;;;;;;;;10.00;10.00;;;;;16.61;32.96;101080.06;4974888;28;45374;-56
2022/04/18 08:53:27;;;;;;;;;8.67;8.67;;;;;17.34;31.72;101071.91;4975157;28;45755;-55
2022/04/18 08:55:54;;;;;;;;;10.67;10.67;;;;;17.48;30.47;101065.47;4974103;28;45476;-56
2022/04/18 08:58:21;;;;;;;;;12.33;11.67;;;;;17.57;30.61;101075.47;4974735;28;45337;-57
2022/04/18 09:00:47;;;;;;;;;11.00;8.00;;;;;17.57;30.61;101060.19;4973420;28;45639;-55
2022/04/18 09:03:12;;;;;;;;;6.00;6.00;;;;;17.74;30.51;101076.91;4974813;28;46114;-56
2022/04/18 09:05:39;;;;;;;;;9.33;7.33;;;;;17.89;30.65;101078.38;4964440;28;45449;-55
2022/04/18 09:08:07;;;;;;;;;6.33;6.33;;;;;18.00;29.48;101064.94;4955729;28;45406;-57
2022/04/18 09:10:34;;;;;;;;;10.00;9.33;;;;;18.18;29.90;101071.53;5071963;27;45351;-55
2022/04/18 09:13:14;;;;;;;;;8.00;8.00;;;;;18.53;29.70;101075.91;5077592;27;45420;-55
2022/04/18 09:15:41;;;;;;;;;9.00;8.00;;;;;18.81;29.71;101086.16;5077575;28;45377;-55
2022/04/18 09:18:16;;;;;;;;;9.33;7.33;;;;;19.05;28.98;101068.94;5077687;27;45409;-56
2022/04/18 09:20:53;;;;;;;;;11.33;11.33;;;;;19.27;28.71;101059.88;5062681;27;45619;-55
2022/04/18 09:23:20;;;;;;;;;9.33;8.00;;;;;19.36;28.46;101065.34;4982535;27;45475;-55
2022/04/18 09:25:50;;;;;;;;;3.67;3.00;;;;;19.56;28.74;101063.66;4973543;28;45438;-55
2022/04/18 09:28:16;;;;;;;;;9.67;9.67;;;;;19.90;27.67;101063.41;4974806;27;45363;-56
2022/04/18 09:30:42;;;;;;;;;8.33;8.33;;;;;20.07;27.69;101052.00;4974986;28;45398;-59
2022/04/18 09:33:08;;;;;;;;;9.00;9.00;;;;;20.24;27.36;101055.91;4974515;28;45516;-56
2022/04/18 09:35:35;;;;;;;;;7.00;7.00;;;;;20.43;26.80;101050.56;4974496;28;45370;-56
2022/04/18 09:38:06;;;;;;;;;8.00;8.00;;;;;20.72;27.19;101066.03;4973715;28;45341;-56
2022/04/18 09:40:32;;;;;;;;;10.00;8.33;;;;;20.89;26.41;101046.38;4972793;28;45521;-55
2022/04/18 09:42:58;;;;;;;;;10.33;9.00;;;;;20.66;26.18;101055.75;4973244;28;46234;-56
2022/04/18 09:45:24;;;;;;;;;8.00;6.67;;;;;20.73;26.01;101057.75;4974337;27;45451;-55
2022/04/18 09:48:03;;;;;;;;;8.33;7.00;;;;;20.75;25.84;101054.91;4972860;28;45312;-57
2022/04/18 09:53:25;;;;;;;;;7.67;7.00;;;;;20.80;26.34;101055.34;4972989;28;45261;-57
2022/04/18 09:55:55;;;;;;;;;5.00;5.00;;;;;21.04;26.81;101054.94;4973591;28;45349;-57
2022/04/18 09:58:21;;;;;;;;;8.00;7.00;;;;;21.16;26.30;101053.78;4972639;28;45440;-57
2022/04/18 10:00:47;;;;;;;;;10.33;7.67;;;;;21.40;25.93;101045.25;4974165;28;45231;-57
2022/04/18 10:03:13;;;;;;;;;10.00;8.00;;;;;21.66;25.94;101046.34;4973740;28;46134;-55
2022/04/18 10:05:40;;;;;;;;;6.33;6.33;;;;;21.55;24.44;101043.81;4972822;28;45195;-57
2022/04/18 10:08:06;;;;;;;;;6.33;6.00;;;;;21.47;25.08;101035.53;4972696;28;45461;-56
2022/04/18 10:10:37;;;;;;;;;6.67;5.67;;;;;21.19;24.18;101032.72;5021710;28;45482;-57
2022/04/18 10:13:03;;;;;;;;;4.00;4.00;;;;;21.11;24.78;101040.72;4972528;28;46933;-59
2022/04/18 10:15:30;;;;;;;;;6.00;6.00;;;;;21.07;25.99;101025.75;4989167;27;45289;-56
2022/04/18 10:17:56;;;;;;;;;5.33;5.33;;;;;21.14;25.74;101029.59;4973830;28;45433;-56
2022/04/18 10:20:53;;;;;;;;;5.33;5.33;;;;;21.17;26.05;101036.56;4973629;28;45449;-56
2022/04/18 10:23:27;;;;;;;;;6.00;6.00;;;;;21.05;25.39;101030.44;4973749;28;45466;-55
2022/04/18 10:26:24;;;;;;;;;7.67;6.33;;;;;20.88;25.43;101031.16;4973868;28;45398;-55
2022/04/18 10:28:53;;;;;;;;;5.67;4.67;;;;;20.87;26.09;101038.44;4972724;28;45448;-56
2022/04/18 10:31:33;;;;;;;;;4.33;4.33;;;;;20.80;26.93;101036.41;4973217;28;45303;-57
2022/04/18 10:33:59;;;;;;;;;5.33;5.33;;;;;20.75;25.54;101034.16;4974075;28;46145;-58
2022/04/18 10:36:32;;;;;;;;;6.00;6.00;;;;;20.54;25.23;101031.53;4973910;28;45617;-55
2022/04/18 10:39:04;;;;;;;;;6.00;4.33;;;;;20.49;26.40;101028.41;4974125;28;45372;-57
2022/04/18 10:41:38;;;;;;;;;4.33;4.33;;;;;20.60;26.46;101036.41;4974593;28;45359;-56
2022/04/18 10:44:16;;;;;;;;;7.33;7.33;;;;;20.67;25.95;101033.97;4972900;28;45315;-56
2022/04/18 10:47:03;;;;;;;;;8.00;6.00;;;;;20.51;26.88;101025.56;4973858;28;45586;-56
2022/04/18 10:49:31;;;;;;;;;7.00;7.00;;;;;20.51;26.12;101036.38;4973904;28;45340;-57
2022/04/18 10:52:07;;;;;;;;;5.00;5.00;;;;;20.46;26.25;101025.16;4972713;28;45633;-59
2022/04/18 10:54:33;;;;;;;;;6.33;5.00;;;;;20.44;26.73;101008.19;4972168;28;46832;-55
2022/04/18 10:57:11;;;;;;;;;7.33;6.00;;;;;20.39;26.46;101007.75;4973722;28;45228;-57
2022/04/18 10:59:41;;;;;;;;;5.00;5.00;;;;;20.37;25.63;101017.84;4974074;28;45494;-57
2022/04/18 11:02:07;;;;;;;;;5.00;5.00;;;;;20.37;25.97;101012.44;4973284;27;45508;-57
2022/04/18 11:04:48;;;;;;;;;5.00;5.00;;;;;20.40;25.93;101010.28;4973506;28;46182;-57
2022/04/18 11:07:14;;;;;;;;;5.33;5.33;;;;;20.14;25.48;100998.28;4974203;28;45316;-54
2022/04/18 11:09:44;;;;;;;;;4.33;4.33;;;;;20.17;25.49;101011.50;5034857;28;45458;-59
2022/04/18 11:12:16;;;;;;;;;6.67;5.33;;;;;20.24;26.42;101001.88;5076383;27;45521;-55
2022/04/18 11:15:15;;;;;;;;;7.00;5.67;;;;;20.37;27.27;101004.31;5076434;27;45319;-56
2022/04/18 11:17:41;;;;;;;;;5.00;5.00;;;;;20.37;26.57;101013.28;5058199;27;45219;-57
2022/04/18 11:20:32;;;;;;;;;4.33;4.33;;;;;20.66;26.95;101001.69;5023482;27;45451;-58
2022/04/18 11:23:22;;;;;;;;;7.67;5.67;;;;;20.92;26.68;101002.84;4974674;28;45296;-55
2022/04/18 11:25:56;;;;;;;;;5.00;5.00;;;;;21.02;25.45;100992.88;4972861;28;45688;-56
2022/04/18 11:28:23;;;;;;;;;5.00;5.00;;;;;21.07;25.04;100995.16;4972288;28;45338;-57
2022/04/18 11:30:50;;;;;;;;;7.00;6.00;;;;;21.07;25.24;100974.38;4971894;28;45533;-57
2022/04/18 11:33:15;;;;;;;;;9.00;5.00;;;;;21.02;26.00;100968.53;4973723;28;45471;-55
2022/04/18 11:35:42;;;;;;;;;4.33;4.33;;;;;21.27;24.79;100996.03;4972143;28;45528;-57
2022/04/18 11:38:09;;;;;;;;;7.00;7.00;;;;;21.36;25.04;100992.44;4971918;28;45319;-56
2022/04/18 11:40:39;;;;;;;;;5.67;5.67;;;;;21.46;24.76;100990.53;4972035;28;45289;-55
2022/04/18 11:43:13;;;;;;;;;7.00;5.00;;;;;21.53;26.41;100983.56;4975876;28;45456;-55
2022/04/18 11:45:39;;;;;;;;;5.67;5.33;;;;;21.63;25.57;100972.72;4974633;28;47450;-55